createdAt,value
2018-03-01T00:00:33.843Z,13.33
2018-03-01T00:03:01.933Z,13.40
2018-03-01T00:05:29.308Z,12.53
2018-03-01T00:07:56.640Z,14.33
2018-03-01T00:10:24.031Z,13.23
2018-03-01T00:12:52.287Z,13.13
2018-03-01T00:15:19.663Z,13.37
2018-03-01T00:17:47.743Z,13.70
2018-03-01T00:20:16.076Z,12.70
2018-03-01T00:22:43.415Z,13.03
2018-03-01T00:25:11.751Z,12.63
2018-03-01T00:27:39.103Z,13.10
2018-03-01T00:30:06.547Z,12.30
2018-03-01T00:32:33.878Z,13.10
2018-03-01T00:35:01.412Z,12.47
2018-03-01T00:37:29.495Z,12.90
2018-03-01T00:39:57.667Z,12.87
2018-03-01T00:42:25.152Z,13.43
2018-03-01T00:44:53.199Z,12.53
2018-03-01T00:47:21.516Z,12.50
2018-03-01T00:49:48.882Z,13.33
2018-03-01T00:52:16.223Z,13.47
2018-03-01T00:54:43.588Z,13.03
2018-03-01T00:57:11.856Z,12.50
2018-03-01T00:59:39.203Z,12.93
2018-03-01T01:02:07.331Z,13.07
2018-03-01T01:04:35.583Z,13.17
2018-03-01T01:07:02.990Z,11.97
2018-03-01T01:09:30.540Z,13.20
2018-03-01T01:11:58.751Z,12.13
2018-03-01T01:14:26.165Z,13.20
2018-03-01T01:16:53.553Z,12.40
2018-03-01T01:19:21.827Z,11.60
2018-03-01T01:21:49.215Z,13.77
2018-03-01T01:24:16.586Z,13.27
2018-03-01T01:26:44.847Z,13.10
2018-03-01T01:29:12.975Z,13.33
2018-03-01T01:31:41.059Z,13.23
2018-03-01T01:34:09.197Z,12.83
2018-03-01T01:36:37.410Z,12.73
2018-03-01T01:39:05.223Z,12.50
2018-03-01T01:41:33.314Z,12.87
2018-03-01T01:44:01.067Z,12.87
2018-03-01T01:46:29.311Z,11.67
2018-03-01T01:48:57.867Z,13.40
2018-03-01T01:51:25.243Z,12.13
2018-03-01T01:53:53.883Z,13.17
2018-03-01T01:56:21.421Z,12.80
2018-03-01T01:58:48.929Z,12.47
2018-03-01T02:01:17.226Z,12.33
2018-03-01T02:03:44.525Z,12.97
2018-03-01T02:06:12.688Z,13.57
2018-03-01T02:08:40.990Z,14.40
2018-03-01T02:11:08.348Z,13.30
2018-03-01T02:13:36.520Z,12.57
2018-03-01T02:16:04.835Z,12.53
2018-03-01T02:18:32.191Z,13.93
2018-03-01T02:21:00.317Z,12.90
2018-03-01T02:23:28.432Z,12.47
2018-03-01T02:25:56.699Z,12.90
2018-03-01T02:28:25.584Z,12.67
2018-03-01T02:30:53.879Z,14.00
2018-03-01T02:33:21.238Z,13.73
2018-03-01T02:35:48.659Z,13.53
2018-03-01T02:38:15.990Z,13.63
2018-03-01T02:40:44.635Z,12.37
2018-03-01T02:43:12.888Z,13.07
2018-03-01T02:45:40.333Z,12.27
2018-03-01T02:48:08.448Z,11.77
2018-03-01T02:50:35.811Z,13.03
2018-03-01T02:53:03.183Z,12.27
2018-03-01T02:55:31.435Z,12.73
2018-03-01T02:57:58.752Z,13.17
2018-03-01T03:00:27.037Z,12.67
2018-03-01T03:02:55.352Z,12.07
2018-03-01T03:05:23.763Z,12.50
2018-03-01T03:07:51.103Z,12.57
2018-03-01T03:10:19.208Z,12.53
2018-03-01T03:12:46.687Z,12.03
2018-03-01T03:15:14.798Z,12.43
2018-03-01T03:17:42.141Z,13.03
2018-03-01T03:20:09.465Z,12.73
2018-03-01T03:22:37.764Z,12.33
2018-03-01T03:25:05.114Z,12.27
2018-03-01T03:27:32.526Z,11.93
2018-03-01T03:30:00.108Z,12.47
2018-03-01T03:32:28.231Z,13.57
2018-03-01T03:34:55.537Z,13.07
2018-03-01T03:37:23.668Z,12.77
2018-03-01T03:39:52.031Z,12.57
2018-03-01T03:42:19.652Z,12.83
2018-03-01T03:44:47.752Z,12.20
2018-03-01T03:47:15.084Z,12.40
2018-03-01T03:49:43.496Z,13.50
2018-03-01T03:52:11.671Z,13.17
2018-03-01T03:54:39.071Z,13.23
2018-03-01T03:57:07.130Z,12.90
2018-03-01T03:59:35.254Z,12.43
2018-03-01T04:02:02.592Z,12.70
2018-03-01T04:04:31.067Z,12.70
2018-03-01T04:06:59.131Z,12.83
2018-03-01T04:09:27.225Z,12.37
2018-03-01T04:11:54.704Z,14.03
2018-03-01T04:14:22.769Z,13.63
2018-03-01T04:16:51.005Z,13.23
2018-03-01T04:19:19.264Z,12.97
2018-03-01T04:21:47.381Z,13.50
2018-03-01T04:24:15.707Z,13.73
2018-03-01T04:26:43.689Z,13.07
2018-03-01T04:29:11.816Z,13.03
2018-03-01T04:31:39.177Z,12.77
2018-03-01T04:34:06.596Z,11.83
2018-03-01T04:36:33.948Z,13.13
2018-03-01T04:39:01.340Z,13.57
2018-03-01T04:41:29.436Z,13.23
2018-03-01T04:43:57.000Z,13.03
2018-03-01T04:46:25.117Z,13.60
2018-03-01T04:48:53.236Z,13.43
2018-03-01T04:51:20.584Z,13.63
2018-03-01T04:53:48.846Z,12.27
2018-03-01T04:56:16.967Z,12.57
2018-03-01T04:58:45.543Z,13.23
2018-03-01T05:01:14.460Z,13.60
2018-03-01T05:03:42.052Z,13.90
2018-03-01T05:06:09.625Z,12.90
2018-03-01T05:08:37.393Z,12.63
2018-03-01T05:11:05.652Z,12.83
2018-03-01T05:13:33.775Z,13.10
2018-03-01T05:16:01.116Z,13.17
2018-03-01T05:18:29.391Z,13.17
2018-03-01T05:20:57.671Z,13.23
2018-03-01T05:23:25.045Z,12.83
2018-03-01T05:25:53.100Z,13.40
2018-03-01T05:28:21.180Z,12.40
2018-03-01T05:30:49.660Z,13.37
2018-03-01T05:33:17.930Z,12.53
2018-03-01T05:35:46.237Z,12.40
2018-03-01T05:38:14.452Z,13.73
2018-03-01T05:40:41.795Z,13.23
2018-03-01T05:43:09.160Z,13.07
2018-03-01T05:45:37.490Z,13.43
2018-03-01T05:48:05.187Z,13.73
2018-03-01T05:50:32.578Z,12.50
2018-03-01T05:52:59.985Z,13.30
2018-03-01T05:55:28.256Z,13.67
2018-03-01T05:57:55.643Z,12.33
2018-03-01T06:00:23.886Z,13.00
2018-03-01T06:02:51.258Z,12.87
2018-03-01T06:05:18.586Z,12.73
2018-03-01T06:07:45.996Z,13.23
2018-03-01T06:10:14.053Z,12.80
2018-03-01T06:12:42.463Z,12.03
2018-03-01T06:15:10.585Z,11.73
2018-03-01T06:17:38.012Z,13.03
2018-03-01T06:20:05.394Z,13.97
2018-03-01T06:22:33.698Z,12.77
2018-03-01T06:25:01.061Z,12.53
2018-03-01T06:27:29.320Z,12.57
2018-03-01T06:29:57.488Z,13.33
2018-03-01T06:32:25.578Z,13.23
2018-03-01T06:34:53.200Z,13.33
2018-03-01T06:37:20.560Z,12.43
2018-03-01T06:39:47.952Z,12.33
2018-03-01T06:42:16.167Z,12.70
2018-03-01T06:44:44.231Z,13.77
2018-03-01T06:47:12.575Z,12.73
2018-03-01T06:49:39.929Z,13.43
2018-03-01T06:52:08.045Z,13.40
2018-03-01T06:54:36.331Z,13.23
2018-03-01T06:57:03.674Z,13.03
2018-03-01T06:59:31.029Z,12.50
2018-03-01T07:01:58.404Z,11.90
2018-03-01T07:04:26.005Z,12.87
2018-03-01T07:06:53.344Z,13.87
2018-03-01T07:09:21.635Z,13.33
2018-03-01T07:11:49.752Z,13.30
2018-03-01T07:14:17.884Z,12.97
2018-03-01T07:16:46.115Z,12.70
2018-03-01T07:19:13.485Z,12.00
2018-03-01T07:21:40.816Z,12.17
2018-03-01T07:24:08.516Z,13.00
2018-03-01T07:26:36.799Z,13.50
2018-03-01T07:29:04.940Z,13.57
2018-03-01T07:31:32.240Z,13.80
2018-03-01T07:34:00.464Z,13.17
2018-03-01T07:36:28.759Z,13.93
2018-03-01T07:38:56.880Z,12.63
2018-03-01T07:41:24.268Z,13.03
2018-03-01T07:43:52.559Z,13.53
2018-03-01T07:46:20.411Z,14.03
2018-03-01T07:48:47.772Z,14.77
2018-03-01T07:51:15.119Z,13.63
2018-03-01T07:53:43.367Z,13.37
2018-03-01T07:56:11.683Z,13.53
2018-03-01T07:58:39.052Z,13.33
2018-03-01T08:01:07.153Z,13.53
2018-03-01T08:03:34.516Z,13.40
2018-03-01T08:06:01.832Z,12.83
2018-03-01T08:08:30.291Z,13.90
2018-03-01T08:10:58.583Z,13.20
2018-03-01T08:13:26.056Z,14.00
2018-03-01T08:15:53.348Z,13.70
2018-03-01T08:18:21.596Z,13.80
2018-03-01T08:20:49.884Z,13.87
2018-03-01T08:23:17.265Z,13.30
2018-03-01T08:25:44.784Z,13.40
2018-03-01T08:28:12.087Z,13.73
2018-03-01T08:30:40.365Z,14.13
2018-03-01T08:33:07.720Z,13.90
2018-03-01T08:35:35.092Z,13.57
2018-03-01T08:38:03.239Z,14.40
2018-03-01T08:40:31.524Z,13.40
2018-03-01T08:42:58.960Z,13.93
2018-03-01T08:45:26.329Z,13.50
2018-03-01T08:47:54.851Z,13.40
2018-03-01T08:50:22.924Z,14.23
2018-03-01T08:52:50.852Z,14.23
2018-03-01T08:55:19.151Z,13.90
2018-03-01T08:57:46.720Z,14.00
2018-03-01T09:00:14.285Z,13.77
2018-03-01T09:02:42.503Z,14.30
2018-03-01T09:05:10.634Z,14.17
2018-03-01T09:07:37.981Z,14.67
2018-03-01T09:10:06.112Z,14.17
2018-03-01T09:12:34.259Z,13.43
2018-03-01T09:15:02.530Z,13.87
2018-03-01T09:17:29.873Z,13.90
2018-03-01T09:19:58.308Z,14.43
2018-03-01T09:22:25.656Z,14.40
2018-03-01T09:24:54.114Z,14.37
2018-03-01T09:27:21.516Z,14.13
2018-03-01T09:29:48.852Z,15.97
2018-03-01T09:32:16.978Z,14.83
2018-03-01T09:34:45.304Z,14.83
2018-03-01T09:37:13.631Z,15.20
2018-03-01T09:39:41.776Z,14.80
2018-03-01T09:42:10.037Z,14.67
2018-03-01T09:44:38.364Z,14.83
2018-03-01T09:47:05.659Z,14.97
2018-03-01T09:49:33.015Z,14.90
2018-03-01T09:52:01.263Z,16.07
2018-03-01T09:54:28.793Z,14.50
2018-03-01T09:56:57.067Z,13.80
2018-03-01T09:59:25.144Z,14.13
2018-03-01T10:01:53.521Z,15.20
2018-03-01T10:04:21.593Z,15.57
2018-03-01T10:06:49.029Z,14.43
2018-03-01T10:09:16.409Z,15.50
2018-03-01T10:11:43.985Z,15.23
2018-03-01T10:14:11.624Z,16.27
2018-03-01T10:16:39.028Z,15.57
2018-03-01T10:19:07.133Z,16.27
2018-03-01T10:21:35.216Z,15.97
2018-03-01T10:24:03.295Z,16.07
2018-03-01T10:26:30.942Z,15.73
2018-03-01T10:28:58.341Z,16.13
2018-03-01T10:31:25.726Z,14.90
2018-03-01T10:33:53.991Z,14.70
2018-03-01T10:36:21.373Z,15.87
2018-03-01T10:38:49.624Z,16.40
2018-03-01T10:41:17.005Z,15.83
2018-03-01T10:43:45.108Z,15.63
2018-03-01T10:46:12.468Z,15.33
2018-03-01T10:48:40.567Z,15.77
2018-03-01T10:51:07.916Z,16.27
2018-03-01T10:53:36.184Z,16.10
2018-03-01T10:56:04.013Z,15.93
2018-03-01T10:58:31.327Z,15.77
2018-03-01T11:00:58.804Z,16.20
2018-03-01T11:03:27.051Z,16.20
2018-03-01T11:05:54.904Z,16.63
2018-03-01T11:08:22.351Z,15.53
2018-03-01T11:10:49.703Z,16.27
2018-03-01T11:13:17.192Z,15.93
2018-03-01T11:15:45.477Z,15.93
2018-03-01T11:18:12.820Z,17.07
2018-03-01T11:20:41.059Z,17.17
2018-03-01T11:23:08.460Z,17.80
2018-03-01T11:25:36.723Z,22.37
2018-03-01T11:28:04.304Z,18.63
2018-03-01T11:30:31.665Z,18.63
2018-03-01T11:32:59.962Z,17.87
2018-03-01T11:35:27.331Z,18.40
2018-03-01T11:37:54.705Z,20.13
2018-03-01T11:40:22.029Z,19.43
2018-03-01T11:42:50.114Z,19.73
2018-03-01T11:45:18.104Z,19.47
2018-03-01T11:47:45.476Z,21.00
2018-03-01T11:50:13.759Z,20.67
2018-03-01T11:52:42.000Z,19.57
2018-03-01T11:55:10.488Z,21.07
2018-03-01T11:57:38.830Z,23.73
2018-03-01T12:00:06.164Z,20.47
2018-03-01T12:02:33.523Z,20.43
2018-03-01T12:05:00.865Z,19.77
2018-03-01T12:07:28.208Z,19.33
2018-03-01T12:09:56.671Z,19.70
2018-03-01T12:12:24.195Z,19.40
2018-03-01T12:14:51.543Z,18.40
2018-03-01T12:17:19.239Z,19.00
2018-03-01T12:19:47.563Z,18.10
2018-03-01T12:22:15.808Z,17.33
2018-03-01T12:24:44.111Z,17.73
2018-03-01T12:27:11.465Z,17.03
2018-03-01T12:29:39.152Z,18.33
2018-03-01T12:32:07.260Z,16.77
2018-03-01T12:34:35.748Z,17.50
2018-03-01T12:37:03.223Z,17.03
2018-03-01T12:39:30.769Z,16.77
2018-03-01T12:41:59.036Z,17.23
2018-03-01T12:44:26.584Z,16.97
2018-03-01T12:46:54.856Z,17.77
2018-03-01T12:49:22.212Z,16.50
2018-03-01T12:51:50.469Z,17.90
2018-03-01T12:54:17.839Z,17.70
2018-03-01T12:56:45.220Z,17.00
2018-03-01T12:59:13.664Z,17.87
2018-03-01T13:01:41.812Z,18.17
2018-03-01T13:04:09.165Z,17.50
2018-03-01T13:06:36.568Z,17.50
2018-03-01T13:09:04.838Z,17.50
2018-03-01T13:11:32.236Z,17.13
2018-03-01T13:14:00.492Z,17.57
2018-03-01T13:16:28.840Z,17.13
2018-03-01T13:18:57.131Z,17.60
2018-03-01T13:21:25.469Z,17.10
2018-03-01T13:23:52.816Z,17.33
2018-03-01T13:26:20.241Z,17.70
2018-03-01T13:28:47.595Z,18.83
2018-03-01T13:31:16.000Z,18.70
2018-03-01T13:33:43.339Z,17.90
2018-03-01T13:36:11.627Z,17.13
2018-03-01T13:38:50.364Z,18.13
2018-03-01T13:41:18.811Z,17.07
2018-03-01T13:43:46.514Z,16.27
2018-03-01T13:46:16.868Z,17.30
2018-03-01T13:48:44.331Z,16.87
2018-03-01T13:51:20.530Z,17.30
2018-03-01T13:53:57.243Z,17.03
2018-03-01T13:56:28.274Z,17.43
2018-03-01T13:58:56.544Z,16.83
2018-03-01T14:01:24.092Z,17.77
2018-03-01T14:03:51.474Z,18.50
2018-03-01T14:06:23.120Z,17.60
2018-03-01T14:08:54.067Z,19.70
2018-03-01T14:11:23.173Z,18.37
2018-03-01T14:13:51.591Z,18.67
2018-03-01T14:16:19.141Z,18.53
2018-03-01T14:22:02.949Z,19.17
2018-03-01T14:24:38.582Z,18.57
2018-03-01T14:27:14.278Z,17.23
2018-03-01T14:29:50.404Z,17.27
2018-03-01T14:32:22.585Z,17.40
2018-03-01T14:34:52.671Z,17.30
2018-03-01T14:37:20.098Z,18.47
2018-03-01T14:39:49.120Z,18.00
2018-03-01T14:42:17.516Z,17.70
2018-03-01T14:44:49.985Z,18.10
2018-03-01T14:47:17.381Z,17.20
2018-03-01T14:49:47.793Z,16.37
2018-03-01T14:52:16.153Z,17.63
2018-03-01T14:54:45.425Z,16.47
2018-03-01T14:57:12.818Z,16.57
2018-03-01T14:59:40.211Z,16.47
2018-03-01T15:02:07.710Z,17.27
2018-03-01T15:04:35.909Z,16.40
2018-03-01T15:07:03.512Z,15.83
2018-03-01T15:09:32.582Z,17.53
2018-03-01T15:12:02.654Z,16.43
2018-03-01T15:14:38.169Z,16.47
2018-03-01T15:17:15.333Z,16.20
2018-03-01T15:19:49.534Z,16.07
2018-03-01T15:22:17.698Z,16.53
2018-03-01T15:24:45.868Z,15.90
2018-03-01T15:27:16.817Z,15.93
2018-03-01T15:29:46.872Z,15.27
2018-03-01T15:32:15.363Z,15.67
2018-03-01T15:34:46.900Z,15.83
2018-03-01T15:37:19.094Z,15.90
2018-03-01T15:39:46.572Z,16.70
2018-03-01T15:42:15.996Z,16.97
2018-03-01T15:44:44.518Z,15.47
2018-03-01T15:47:15.799Z,15.37
2018-03-01T15:49:47.436Z,15.80
2018-03-01T15:52:15.836Z,15.73
2018-03-01T15:54:47.053Z,17.10
2018-03-01T15:57:16.672Z,15.37
2018-03-01T15:59:49.370Z,16.03
2018-03-01T16:02:20.485Z,16.33
2018-03-01T16:04:50.613Z,15.67
2018-03-01T16:07:19.777Z,15.43
2018-03-01T16:10:07.730Z,16.93
2018-03-01T16:12:39.867Z,16.40
2018-03-01T16:15:08.408Z,16.43
2018-03-01T16:17:41.429Z,15.67
2018-03-01T16:20:08.860Z,15.50
2018-03-01T16:22:39.998Z,15.73
2018-03-01T16:25:07.414Z,15.90
2018-03-01T16:27:37.768Z,16.40
2018-03-01T16:30:05.154Z,16.03
2018-03-01T16:32:35.713Z,16.73
2018-03-01T16:35:05.773Z,15.83
2018-03-01T16:37:35.113Z,16.13
2018-03-01T16:40:04.277Z,15.37
2018-03-01T16:42:31.911Z,15.60
2018-03-01T16:44:59.325Z,16.03
2018-03-01T16:47:28.771Z,16.10
2018-03-01T16:49:59.949Z,15.73
2018-03-01T16:52:30.916Z,15.23
2018-03-01T16:55:01.087Z,16.17
2018-03-01T16:57:30.381Z,16.23
2018-03-01T16:59:58.757Z,15.67
2018-03-01T17:02:26.281Z,15.30
2018-03-01T17:04:54.584Z,16.47
2018-03-01T17:07:23.712Z,15.37
2018-03-01T17:09:52.009Z,16.13
2018-03-01T17:12:20.180Z,15.87
2018-03-01T17:14:51.521Z,16.90
2018-03-01T17:17:20.611Z,15.27
2018-03-01T17:19:48.817Z,15.30
2018-03-01T17:22:17.068Z,16.20
2018-03-01T17:24:48.038Z,15.90
2018-03-01T17:27:15.505Z,15.50
2018-03-01T17:29:45.907Z,16.10
2018-03-01T17:32:18.164Z,16.37
2018-03-01T17:34:47.324Z,16.27
2018-03-01T17:37:16.359Z,15.83
2018-03-01T17:39:43.732Z,15.53
2018-03-01T17:42:13.953Z,15.70
2018-03-01T17:44:42.293Z,15.27
2018-03-01T17:47:09.738Z,16.70
2018-03-01T17:49:38.163Z,15.50
2018-03-01T17:52:05.600Z,16.03
2018-03-01T17:54:35.529Z,16.10
2018-03-01T17:57:07.818Z,17.37
2018-03-01T17:59:37.166Z,15.93
2018-03-01T18:02:05.545Z,15.90
2018-03-01T18:04:34.587Z,16.47
2018-03-01T18:07:02.000Z,15.97
2018-03-01T18:09:32.141Z,15.00
2018-03-01T18:11:59.522Z,16.37
2018-03-01T18:14:30.439Z,16.87
2018-03-01T18:17:02.703Z,16.73
2018-03-01T18:19:32.644Z,16.37
2018-03-01T18:22:02.864Z,16.63
2018-03-01T18:24:32.005Z,16.20
2018-03-01T18:26:59.431Z,16.53
2018-03-01T18:29:28.962Z,16.20
2018-03-01T18:32:03.073Z,15.10
2018-03-01T18:34:32.563Z,17.03
2018-03-01T18:37:01.012Z,15.87
2018-03-01T18:39:30.122Z,15.73
2018-03-01T18:41:58.511Z,16.03
2018-03-01T18:44:28.876Z,15.73
2018-03-01T18:46:57.002Z,16.07
2018-03-01T18:49:32.324Z,16.57
2018-03-01T18:52:01.780Z,16.57
2018-03-01T18:54:29.242Z,15.87
2018-03-01T18:56:57.375Z,17.17
2018-03-01T18:59:26.692Z,17.57
2018-03-01T19:01:54.050Z,16.50
2018-03-01T19:04:22.028Z,16.27
2018-03-01T19:06:52.184Z,16.90
2018-03-01T19:09:19.532Z,16.10
2018-03-01T19:11:50.851Z,16.73
2018-03-01T19:14:19.122Z,17.80
2018-03-01T19:16:46.557Z,16.63
2018-03-01T19:19:14.412Z,17.60
2018-03-01T19:21:41.831Z,16.77
2018-03-01T19:24:13.746Z,16.87
2018-03-01T19:26:41.253Z,17.33
2018-03-01T19:29:09.342Z,17.43
2018-03-01T19:31:36.733Z,16.23
2018-03-01T19:34:04.448Z,16.53
2018-03-01T19:36:34.752Z,17.70
2018-03-01T19:39:02.904Z,16.30
2018-03-01T19:41:31.047Z,16.90
2018-03-01T19:43:59.446Z,17.37
2018-03-01T19:46:26.879Z,17.20
2018-03-01T19:48:54.299Z,17.50
2018-03-01T19:51:21.961Z,17.10
2018-03-01T19:53:56.549Z,17.07
2018-03-01T19:56:23.958Z,17.23
2018-03-01T19:58:51.342Z,18.20
2018-03-01T20:01:18.775Z,17.13
2018-03-01T20:03:46.925Z,17.87
2018-03-01T20:06:17.299Z,17.97
2018-03-01T20:08:45.838Z,18.17
2018-03-01T20:11:13.248Z,17.70
2018-03-01T20:13:43.576Z,17.90
2018-03-01T20:16:14.562Z,18.57
2018-03-01T20:18:42.941Z,18.63
2018-03-01T20:21:13.945Z,17.90
2018-03-01T20:23:44.287Z,18.37
2018-03-01T20:26:11.738Z,18.37
2018-03-01T20:28:39.853Z,18.23
2018-03-01T20:31:07.240Z,18.03
2018-03-01T20:33:35.722Z,17.77
2018-03-01T20:36:04.100Z,17.70
2018-03-01T20:38:31.485Z,18.40
2018-03-01T20:40:59.514Z,17.43
2018-03-01T20:43:26.977Z,18.63
2018-03-01T20:45:54.365Z,18.87
2018-03-01T20:48:23.557Z,18.57
2018-03-01T20:50:51.891Z,18.70
2018-03-01T20:53:19.297Z,18.07
2018-03-01T20:55:46.775Z,17.90
2018-03-01T20:58:14.130Z,18.80
2018-03-01T21:00:41.679Z,17.37
2018-03-01T21:03:09.076Z,18.00
2018-03-01T21:05:38.383Z,18.80
2018-03-01T21:08:07.882Z,18.20
2018-03-01T21:10:35.281Z,18.57
2018-03-01T21:13:03.449Z,18.27
2018-03-01T21:15:32.872Z,18.83
2018-03-01T21:18:04.915Z,18.60
2018-03-01T21:20:34.221Z,18.87
2018-03-01T21:23:05.116Z,18.93
2018-03-01T21:25:32.575Z,18.97
2018-03-01T21:28:03.702Z,18.43
2018-03-01T21:30:32.728Z,19.63
2018-03-01T21:33:01.798Z,18.53
2018-03-01T21:35:30.343Z,18.97
2018-03-01T21:38:02.537Z,19.30
2018-03-01T21:40:32.728Z,18.90
2018-03-01T21:43:00.976Z,18.47
2018-03-01T21:45:29.228Z,20.20
2018-03-01T21:47:59.518Z,19.40
2018-03-01T21:50:26.874Z,19.33
2018-03-01T21:52:54.276Z,19.43
2018-03-01T21:55:23.342Z,18.60
2018-03-01T21:57:50.742Z,19.93
2018-03-01T22:00:20.475Z,19.90
2018-03-01T22:02:48.625Z,19.80
2018-03-01T22:05:16.878Z,18.80
2018-03-01T22:07:44.436Z,20.67
2018-03-01T22:10:11.790Z,26.12
2018-03-01T22:12:39.213Z,21.07
2018-03-01T22:15:06.907Z,20.97
2018-03-01T22:17:34.321Z,19.93
2018-03-01T22:20:04.460Z,19.67
2018-03-01T22:22:35.496Z,20.43
2018-03-01T22:25:02.946Z,19.47
2018-03-01T22:27:31.225Z,19.00
2018-03-01T22:29:58.653Z,21.07
2018-03-01T22:32:26.240Z,20.23
2018-03-01T22:34:56.541Z,19.07
2018-03-01T22:37:27.071Z,20.03
2018-03-01T22:39:55.356Z,19.53
2018-03-01T22:42:22.995Z,20.27
2018-03-01T22:44:51.822Z,20.43
2018-03-01T22:47:20.142Z,18.97
2018-03-01T22:49:47.928Z,19.60
2018-03-01T22:52:16.068Z,16.77
2018-03-01T22:54:49.655Z,19.63
2018-03-01T22:57:18.224Z,19.93
2018-03-01T22:59:49.649Z,20.83
2018-03-01T23:02:17.052Z,19.50
2018-03-01T23:04:44.477Z,21.53
2018-03-01T23:07:13.867Z,20.43
2018-03-01T23:09:41.256Z,20.13
2018-03-01T23:12:08.660Z,19.77
2018-03-01T23:14:36.791Z,20.97
2018-03-01T23:17:05.720Z,21.97
2018-03-01T23:19:33.844Z,21.17
2018-03-01T23:22:02.006Z,19.33
2018-03-01T23:24:29.572Z,19.97
2018-03-01T23:26:57.727Z,19.83
2018-03-01T23:29:25.954Z,21.27
2018-03-01T23:31:54.237Z,19.20
2018-03-01T23:34:22.476Z,19.20
2018-03-01T23:36:49.844Z,20.70
2018-03-01T23:39:17.211Z,21.50
2018-03-01T23:41:45.520Z,21.00
2018-03-01T23:44:14.312Z,21.60
2018-03-01T23:46:42.012Z,20.23
2018-03-01T23:49:09.794Z,20.27
2018-03-01T23:51:37.983Z,21.23
2018-03-01T23:54:07.517Z,21.57
2018-03-01T23:56:35.669Z,20.57
2018-03-01T23:59:04.208Z,21.30
